Indianapolis, Indiana
Traffic Map
Current Weather Conditions
Indianapolis, Indiana
Scattered Clouds
Scattered Clouds
22°
Feels Like: 22°
Wind Chill: 22° Ceiling: Unl
Heat Index: 22° Visibility: 10mi
Dew Point: 13° Wind: 0mph
Humidity: 59% Direction: ° ()
Pressure: 29.92in Gusts: 0mph
Raw Report DataKIND 011654Z 00000KT 10SM SCT036 22/13 A2992 RMK AO2 SLP129 T02170133
Traffic Incident Summary
Active as of:
Severity:
Category:
InformationThere was an issue retrieving the traffic information for this location. Please try a different location or try again shortly.
Advertisements
Track Severe Weather on mobile